sensor_id;sensor_type;location;lat;lon;timestamp;temperature;humidity
81337;DHT22;70799;48.000;10.584;2023-07-29T00:02:27;18.70;82.70
81337;DHT22;70799;48.000;10.584;2023-07-29T00:05:02;18.70;82.90
81337;DHT22;70799;48.000;10.584;2023-07-29T00:07:39;18.70;82.70
81337;DHT22;70799;48.000;10.584;2023-07-29T00:10:11;18.60;82.60
81337;DHT22;70799;48.000;10.584;2023-07-29T00:12:45;18.70;82.50
81337;DHT22;70799;48.000;10.584;2023-07-29T00:15:18;18.60;82.60
81337;DHT22;70799;48.000;10.584;2023-07-29T00:17:51;18.60;82.40
81337;DHT22;70799;48.000;10.584;2023-07-29T00:20:24;18.60;82.80
81337;DHT22;70799;48.000;10.584;2023-07-29T00:22:57;18.40;82.40
81337;DHT22;70799;48.000;10.584;2023-07-29T00:25:34;18.50;82.70
81337;DHT22;70799;48.000;10.584;2023-07-29T00:28:07;18.50;82.50
81337;DHT22;70799;48.000;10.584;2023-07-29T00:30:40;18.40;82.60
81337;DHT22;70799;48.000;10.584;2023-07-29T00:33:13;18.40;82.60
81337;DHT22;70799;48.000;10.584;2023-07-29T00:35:46;18.40;82.60
81337;DHT22;70799;48.000;10.584;2023-07-29T00:38:19;18.30;82.60
81337;DHT22;70799;48.000;10.584;2023-07-29T00:40:52;18.30;82.70
81337;DHT22;70799;48.000;10.584;2023-07-29T00:43:25;18.30;82.80
81337;DHT22;70799;48.000;10.584;2023-07-29T00:45:59;18.20;82.40
81337;DHT22;70799;48.000;10.584;2023-07-29T00:48:35;18.20;82.30
81337;DHT22;70799;48.000;10.584;2023-07-29T00:51:08;18.30;82.40
81337;DHT22;70799;48.000;10.584;2023-07-29T00:53:42;18.20;82.40
81337;DHT22;70799;48.000;10.584;2023-07-29T00:56:15;18.10;83.50
81337;DHT22;70799;48.000;10.584;2023-07-29T00:58:48;18.10;83.40
81337;DHT22;70799;48.000;10.584;2023-07-29T01:01:21;18.00;83.60
81337;DHT22;70799;48.000;10.584;2023-07-29T01:03:54;17.90;83.70
81337;DHT22;70799;48.000;10.584;2023-07-29T01:06:53;17.80;83.40
81337;DHT22;70799;48.000;10.584;2023-07-29T01:09:55;17.80;83.50
81337;DHT22;70799;48.000;10.584;2023-07-29T01:12:54;17.70;84.00
81337;DHT22;70799;48.000;10.584;2023-07-29T01:15:59;17.70;84.00
81337;DHT22;70799;48.000;10.584;2023-07-29T01:18:36;17.70;84.10
81337;DHT22;70799;48.000;10.584;2023-07-29T01:21:12;17.60;84.10
81337;DHT22;70799;48.000;10.584;2023-07-29T01:23:46;17.60;84.10
81337;DHT22;70799;48.000;10.584;2023-07-29T01:26:18;17.50;84.40
81337;DHT22;70799;48.000;10.584;2023-07-29T01:28:51;17.50;84.50
81337;DHT22;70799;48.000;10.584;2023-07-29T01:31:34;17.60;84.50
81337;DHT22;70799;48.000;10.584;2023-07-29T01:34:22;17.50;84.90
81337;DHT22;70799;48.000;10.584;2023-07-29T01:36:57;17.50;84.90
81337;DHT22;70799;48.000;10.584;2023-07-29T01:39:35;17.50;84.90
81337;DHT22;70799;48.000;10.584;2023-07-29T01:42:09;17.60;84.90
81337;DHT22;70799;48.000;10.584;2023-07-29T01:44:43;17.50;84.80
81337;DHT22;70799;48.000;10.584;2023-07-29T01:47:19;17.60;84.60
81337;DHT22;70799;48.000;10.584;2023-07-29T01:49:54;17.70;84.70
81337;DHT22;70799;48.000;10.584;2023-07-29T01:52:27;17.70;84.70
81337;DHT22;70799;48.000;10.584;2023-07-29T01:55:00;17.80;84.70
81337;DHT22;70799;48.000;10.584;2023-07-29T01:57:34;17.90;84.50
81337;DHT22;70799;48.000;10.584;2023-07-29T02:00:08;17.90;84.50
81337;DHT22;70799;48.000;10.584;2023-07-29T02:02:46;18.00;84.50
81337;DHT22;70799;48.000;10.584;2023-07-29T02:05:20;18.00;84.50
81337;DHT22;70799;48.000;10.584;2023-07-29T02:07:52;17.90;84.30
81337;DHT22;70799;48.000;10.584;2023-07-29T02:10:25;18.00;84.40
81337;DHT22;70799;48.000;10.584;2023-07-29T02:12:58;18.10;84.60
81337;DHT22;70799;48.000;10.584;2023-07-29T02:15:33;18.10;84.60
81337;DHT22;70799;48.000;10.584;2023-07-29T02:18:06;18.10;84.50
81337;DHT22;70799;48.000;10.584;2023-07-29T02:20:39;18.20;83.40
81337;DHT22;70799;48.000;10.584;2023-07-29T02:23:12;18.20;83.40
81337;DHT22;70799;48.000;10.584;2023-07-29T02:25:45;18.30;83.20
81337;DHT22;70799;48.000;10.584;2023-07-29T02:28:18;18.30;83.30
81337;DHT22;70799;48.000;10.584;2023-07-29T02:33:44;18.30;82.90
81337;DHT22;70799;48.000;10.584;2023-07-29T02:36:18;18.30;83.00
81337;DHT22;70799;48.000;10.584;2023-07-29T02:38:50;18.40;83.40
81337;DHT22;70799;48.000;10.584;2023-07-29T02:41:23;18.30;83.30
81337;DHT22;70799;48.000;10.584;2023-07-29T02:43:56;18.40;83.70
81337;DHT22;70799;48.000;10.584;2023-07-29T02:46:29;18.40;84.00
81337;DHT22;70799;48.000;10.584;2023-07-29T02:49:03;18.40;84.10
81337;DHT22;70799;48.000;10.584;2023-07-29T02:51:36;18.40;84.20
81337;DHT22;70799;48.000;10.584;2023-07-29T02:54:09;18.40;83.80
81337;DHT22;70799;48.000;10.584;2023-07-29T02:56:42;18.60;84.00
81337;DHT22;70799;48.000;10.584;2023-07-29T02:59:15;18.60;83.80
81337;DHT22;70799;48.000;10.584;2023-07-29T03:01:48;18.60;84.00
81337;DHT22;70799;48.000;10.584;2023-07-29T03:04:21;18.60;83.70
81337;DHT22;70799;48.000;10.584;2023-07-29T03:06:55;18.60;83.90
81337;DHT22;70799;48.000;10.584;2023-07-29T03:09:28;18.60;84.00
81337;DHT22;70799;48.000;10.584;2023-07-29T03:12:01;18.60;84.00
81337;DHT22;70799;48.000;10.584;2023-07-29T03:14:35;18.60;84.00
81337;DHT22;70799;48.000;10.584;2023-07-29T03:17:08;18.60;84.00
81337;DHT22;70799;48.000;10.584;2023-07-29T03:19:42;18.50;84.10
81337;DHT22;70799;48.000;10.584;2023-07-29T03:22:15;18.40;84.10
81337;DHT22;70799;48.000;10.584;2023-07-29T03:24:47;18.40;84.00
81337;DHT22;70799;48.000;10.584;2023-07-29T03:27:20;18.40;83.80
81337;DHT22;70799;48.000;10.584;2023-07-29T03:29:53;18.40;84.10
81337;DHT22;70799;48.000;10.584;2023-07-29T03:32:26;18.30;84.00
81337;DHT22;70799;48.000;10.584;2023-07-29T03:34:59;18.20;84.10
81337;DHT22;70799;48.000;10.584;2023-07-29T03:37:32;18.20;84.30
81337;DHT22;70799;48.000;10.584;2023-07-29T03:40:06;18.10;85.80
81337;DHT22;70799;48.000;10.584;2023-07-29T03:42:40;18.10;86.00
81337;DHT22;70799;48.000;10.584;2023-07-29T03:45:13;18.00;86.10
81337;DHT22;70799;48.000;10.584;2023-07-29T03:47:46;18.00;86.30
81337;DHT22;70799;48.000;10.584;2023-07-29T03:50:19;18.10;86.10
81337;DHT22;70799;48.000;10.584;2023-07-29T03:52:52;18.00;86.00
81337;DHT22;70799;48.000;10.584;2023-07-29T03:55:25;17.90;86.00
81337;DHT22;70799;48.000;10.584;2023-07-29T03:57:59;18.00;86.30
81337;DHT22;70799;48.000;10.584;2023-07-29T04:00:32;18.00;86.10
81337;DHT22;70799;48.000;10.584;2023-07-29T04:03:05;17.90;86.40
81337;DHT22;70799;48.000;10.584;2023-07-29T04:05:38;18.00;86.40
81337;DHT22;70799;48.000;10.584;2023-07-29T04:08:11;18.00;86.20
81337;DHT22;70799;48.000;10.584;2023-07-29T04:10:44;18.00;86.40
81337;DHT22;70799;48.000;10.584;2023-07-29T04:13:17;18.00;86.60
81337;DHT22;70799;48.000;10.584;2023-07-29T04:15:50;18.00;86.40
81337;DHT22;70799;48.000;10.584;2023-07-29T04:18:23;18.20;85.30
81337;DHT22;70799;48.000;10.584;2023-07-29T04:20:56;18.20;85.10
81337;DHT22;70799;48.000;10.584;2023-07-29T04:23:29;18.30;85.60
81337;DHT22;70799;48.000;10.584;2023-07-29T04:26:02;18.40;85.40
81337;DHT22;70799;48.000;10.584;2023-07-29T04:28:35;18.60;85.10
81337;DHT22;70799;48.000;10.584;2023-07-29T04:31:08;18.60;85.00
81337;DHT22;70799;48.000;10.584;2023-07-29T04:33:41;18.70;84.90
81337;DHT22;70799;48.000;10.584;2023-07-29T04:36:16;18.80;84.80
81337;DHT22;70799;48.000;10.584;2023-07-29T04:38:49;18.80;84.50
81337;DHT22;70799;48.000;10.584;2023-07-29T04:41:22;18.80;84.70
81337;DHT22;70799;48.000;10.584;2023-07-29T04:43:55;18.90;84.70
81337;DHT22;70799;48.000;10.584;2023-07-29T04:46:28;18.90;84.50
81337;DHT22;70799;48.000;10.584;2023-07-29T04:49:02;18.80;84.80
81337;DHT22;70799;48.000;10.584;2023-07-29T04:51:35;18.70;86.30
81337;DHT22;70799;48.000;10.584;2023-07-29T04:54:08;18.60;86.70
81337;DHT22;70799;48.000;10.584;2023-07-29T04:56:41;18.50;87.30
81337;DHT22;70799;48.000;10.584;2023-07-29T04:59:14;18.40;87.60
81337;DHT22;70799;48.000;10.584;2023-07-29T05:01:48;18.30;88.00
81337;DHT22;70799;48.000;10.584;2023-07-29T05:04:23;18.30;88.20
81337;DHT22;70799;48.000;10.584;2023-07-29T05:06:57;18.30;88.20
81337;DHT22;70799;48.000;10.584;2023-07-29T05:09:31;18.30;88.20
81337;DHT22;70799;48.000;10.584;2023-07-29T05:12:05;18.20;88.40
81337;DHT22;70799;48.000;10.584;2023-07-29T05:14:38;18.30;88.40
81337;DHT22;70799;48.000;10.584;2023-07-29T05:17:13;18.20;88.20
81337;DHT22;70799;48.000;10.584;2023-07-29T05:19:46;18.30;87.80
81337;DHT22;70799;48.000;10.584;2023-07-29T05:22:19;18.20;88.00
81337;DHT22;70799;48.000;10.584;2023-07-29T05:24:52;18.30;88.00
81337;DHT22;70799;48.000;10.584;2023-07-29T05:27:26;18.40;87.80
81337;DHT22;70799;48.000;10.584;2023-07-29T05:29:58;18.30;87.90
81337;DHT22;70799;48.000;10.584;2023-07-29T05:32:32;18.50;88.00
81337;DHT22;70799;48.000;10.584;2023-07-29T05:35:05;18.60;88.40
81337;DHT22;70799;48.000;10.584;2023-07-29T05:37:39;18.70;88.20
81337;DHT22;70799;48.000;10.584;2023-07-29T05:40:12;18.80;88.00
81337;DHT22;70799;48.000;10.584;2023-07-29T05:42:46;18.90;87.90
81337;DHT22;70799;48.000;10.584;2023-07-29T05:45:19;18.80;87.70
81337;DHT22;70799;48.000;10.584;2023-07-29T05:47:52;18.90;87.10
81337;DHT22;70799;48.000;10.584;2023-07-29T05:50:26;18.80;87.10
81337;DHT22;70799;48.000;10.584;2023-07-29T05:52:59;18.70;87.10
81337;DHT22;70799;48.000;10.584;2023-07-29T05:55:32;18.70;87.20
81337;DHT22;70799;48.000;10.584;2023-07-29T05:58:05;18.70;87.40
81337;DHT22;70799;48.000;10.584;2023-07-29T06:00:38;18.70;87.20
81337;DHT22;70799;48.000;10.584;2023-07-29T06:03:12;18.60;87.10
81337;DHT22;70799;48.000;10.584;2023-07-29T06:05:45;18.60;87.10
81337;DHT22;70799;48.000;10.584;2023-07-29T06:08:18;18.50;87.50
81337;DHT22;70799;48.000;10.584;2023-07-29T06:10:51;18.50;87.50
81337;DHT22;70799;48.000;10.584;2023-07-29T06:13:24;18.50;86.80
81337;DHT22;70799;48.000;10.584;2023-07-29T06:15:58;18.50;87.00
81337;DHT22;70799;48.000;10.584;2023-07-29T06:18:33;18.60;87.00
81337;DHT22;70799;48.000;10.584;2023-07-29T06:21:06;18.60;86.40
81337;DHT22;70799;48.000;10.584;2023-07-29T06:23:43;18.50;86.90
81337;DHT22;70799;48.000;10.584;2023-07-29T06:26:16;18.60;87.00
81337;DHT22;70799;48.000;10.584;2023-07-29T06:28:49;18.50;87.50
81337;DHT22;70799;48.000;10.584;2023-07-29T06:31:23;18.60;86.90
81337;DHT22;70799;48.000;10.584;2023-07-29T06:33:57;18.60;87.30
81337;DHT22;70799;48.000;10.584;2023-07-29T06:36:29;18.70;87.30
81337;DHT22;70799;48.000;10.584;2023-07-29T06:39:03;18.80;87.50
81337;DHT22;70799;48.000;10.584;2023-07-29T06:41:35;18.90;87.40
81337;DHT22;70799;48.000;10.584;2023-07-29T06:44:08;19.10;87.70
81337;DHT22;70799;48.000;10.584;2023-07-29T06:46:41;19.20;87.60
81337;DHT22;70799;48.000;10.584;2023-07-29T06:49:15;19.50;87.70
81337;DHT22;70799;48.000;10.584;2023-07-29T06:51:48;19.60;87.50
81337;DHT22;70799;48.000;10.584;2023-07-29T06:54:24;19.80;87.60
81337;DHT22;70799;48.000;10.584;2023-07-29T06:56:58;19.80;87.40
81337;DHT22;70799;48.000;10.584;2023-07-29T06:59:32;19.90;87.20
81337;DHT22;70799;48.000;10.584;2023-07-29T07:02:06;19.90;87.20
81337;DHT22;70799;48.000;10.584;2023-07-29T07:04:39;20.00;87.20
81337;DHT22;70799;48.000;10.584;2023-07-29T07:07:13;20.10;87.10
81337;DHT22;70799;48.000;10.584;2023-07-29T07:09:46;20.20;87.60
81337;DHT22;70799;48.000;10.584;2023-07-29T07:12:19;20.40;87.70
81337;DHT22;70799;48.000;10.584;2023-07-29T07:14:52;20.50;87.50
81337;DHT22;70799;48.000;10.584;2023-07-29T07:17:25;20.70;86.30
81337;DHT22;70799;48.000;10.584;2023-07-29T07:19:58;20.80;86.70
81337;DHT22;70799;48.000;10.584;2023-07-29T07:22:32;20.80;86.20
81337;DHT22;70799;48.000;10.584;2023-07-29T07:25:05;20.90;84.80
81337;DHT22;70799;48.000;10.584;2023-07-29T07:27:39;21.00;85.50
81337;DHT22;70799;48.000;10.584;2023-07-29T07:30:12;21.30;84.80
81337;DHT22;70799;48.000;10.584;2023-07-29T07:32:45;21.40;84.90
81337;DHT22;70799;48.000;10.584;2023-07-29T07:35:18;21.50;84.80
81337;DHT22;70799;48.000;10.584;2023-07-29T07:37:51;21.50;84.20
81337;DHT22;70799;48.000;10.584;2023-07-29T07:40:24;21.50;83.40
81337;DHT22;70799;48.000;10.584;2023-07-29T07:42:57;21.60;84.60
81337;DHT22;70799;48.000;10.584;2023-07-29T07:45:32;21.60;84.90
81337;DHT22;70799;48.000;10.584;2023-07-29T07:48:05;21.80;83.90
81337;DHT22;70799;48.000;10.584;2023-07-29T07:50:41;22.00;83.30
81337;DHT22;70799;48.000;10.584;2023-07-29T07:53:14;22.10;81.80
81337;DHT22;70799;48.000;10.584;2023-07-29T07:55:47;22.10;81.70
81337;DHT22;70799;48.000;10.584;2023-07-29T07:58:20;22.20;81.70
81337;DHT22;70799;48.000;10.584;2023-07-29T08:01:01;22.10;82.50
81337;DHT22;70799;48.000;10.584;2023-07-29T08:03:35;22.20;81.50
81337;DHT22;70799;48.000;10.584;2023-07-29T08:06:08;22.30;79.60
81337;DHT22;70799;48.000;10.584;2023-07-29T08:08:41;22.50;81.60
81337;DHT22;70799;48.000;10.584;2023-07-29T08:11:14;22.70;81.70
81337;DHT22;70799;48.000;10.584;2023-07-29T08:13:47;22.70;80.30
81337;DHT22;70799;48.000;10.584;2023-07-29T08:16:21;22.80;80.70
81337;DHT22;70799;48.000;10.584;2023-07-29T08:18:55;22.90;79.10
81337;DHT22;70799;48.000;10.584;2023-07-29T08:21:28;23.10;81.20
81337;DHT22;70799;48.000;10.584;2023-07-29T08:24:01;23.20;80.40
81337;DHT22;70799;48.000;10.584;2023-07-29T08:26:35;23.40;78.10
81337;DHT22;70799;48.000;10.584;2023-07-29T08:29:09;23.50;79.30
81337;DHT22;70799;48.000;10.584;2023-07-29T08:31:42;23.80;78.30
81337;DHT22;70799;48.000;10.584;2023-07-29T08:34:15;24.10;76.30
81337;DHT22;70799;48.000;10.584;2023-07-29T08:36:48;24.40;73.70
81337;DHT22;70799;48.000;10.584;2023-07-29T08:39:20;24.70;74.70
81337;DHT22;70799;48.000;10.584;2023-07-29T08:42:10;24.90;75.40
81337;DHT22;70799;48.000;10.584;2023-07-29T08:44:44;25.30;75.20
81337;DHT22;70799;48.000;10.584;2023-07-29T08:47:18;25.80;74.10
81337;DHT22;70799;48.000;10.584;2023-07-29T08:49:52;26.20;73.00
81337;DHT22;70799;48.000;10.584;2023-07-29T08:52:26;26.40;68.10
81337;DHT22;70799;48.000;10.584;2023-07-29T08:55:00;26.50;69.70
81337;DHT22;70799;48.000;10.584;2023-07-29T08:57:35;26.70;67.40
81337;DHT22;70799;48.000;10.584;2023-07-29T09:00:09;26.80;67.40
81337;DHT22;70799;48.000;10.584;2023-07-29T09:02:42;27.00;68.50
81337;DHT22;70799;48.000;10.584;2023-07-29T09:05:16;27.40;65.50
81337;DHT22;70799;48.000;10.584;2023-07-29T09:07:51;27.60;66.20
81337;DHT22;70799;48.000;10.584;2023-07-29T09:10:27;27.90;64.10
81337;DHT22;70799;48.000;10.584;2023-07-29T09:13:00;27.80;64.80
81337;DHT22;70799;48.000;10.584;2023-07-29T09:15:35;27.80;65.90
81337;DHT22;70799;48.000;10.584;2023-07-29T09:18:11;28.00;63.70
81337;DHT22;70799;48.000;10.584;2023-07-29T09:20:47;28.20;60.70
81337;DHT22;70799;48.000;10.584;2023-07-29T09:23:20;28.20;62.70
81337;DHT22;70799;48.000;10.584;2023-07-29T09:26:04;28.40;63.90
81337;DHT22;70799;48.000;10.584;2023-07-29T09:28:39;28.50;61.30
81337;DHT22;70799;48.000;10.584;2023-07-29T09:31:24;28.70;62.00
81337;DHT22;70799;48.000;10.584;2023-07-29T09:34:02;28.70;61.20
81337;DHT22;70799;48.000;10.584;2023-07-29T09:36:35;28.80;61.90
81337;DHT22;70799;48.000;10.584;2023-07-29T09:39:12;28.90;63.20
81337;DHT22;70799;48.000;10.584;2023-07-29T09:41:48;29.00;63.40
81337;DHT22;70799;48.000;10.584;2023-07-29T09:44:21;29.00;62.20
81337;DHT22;70799;48.000;10.584;2023-07-29T09:46:54;29.10;60.90
81337;DHT22;70799;48.000;10.584;2023-07-29T09:49:28;29.10;58.80
81337;DHT22;70799;48.000;10.584;2023-07-29T09:52:01;29.10;60.00
81337;DHT22;70799;48.000;10.584;2023-07-29T09:54:36;29.00;59.30
81337;DHT22;70799;48.000;10.584;2023-07-29T09:57:19;28.90;59.60
81337;DHT22;70799;48.000;10.584;2023-07-29T09:59:55;28.90;61.00
81337;DHT22;70799;48.000;10.584;2023-07-29T10:02:28;29.00;60.50
81337;DHT22;70799;48.000;10.584;2023-07-29T10:05:02;29.10;60.10
81337;DHT22;70799;48.000;10.584;2023-07-29T10:07:40;29.20;59.00
81337;DHT22;70799;48.000;10.584;2023-07-29T10:10:13;29.00;59.90
81337;DHT22;70799;48.000;10.584;2023-07-29T10:12:47;28.70;59.40
81337;DHT22;70799;48.000;10.584;2023-07-29T10:15:21;28.60;60.40
81337;DHT22;70799;48.000;10.584;2023-07-29T10:17:56;28.60;59.90
81337;DHT22;70799;48.000;10.584;2023-07-29T10:20:33;28.70;60.40
81337;DHT22;70799;48.000;10.584;2023-07-29T10:23:07;28.80;59.50
81337;DHT22;70799;48.000;10.584;2023-07-29T10:25:49;29.00;59.70
81337;DHT22;70799;48.000;10.584;2023-07-29T10:28:25;29.10;59.10
81337;DHT22;70799;48.000;10.584;2023-07-29T10:31:00;29.10;57.90
81337;DHT22;70799;48.000;10.584;2023-07-29T10:33:34;29.10;59.00
81337;DHT22;70799;48.000;10.584;2023-07-29T10:36:08;29.30;56.10
81337;DHT22;70799;48.000;10.584;2023-07-29T10:38:41;29.10;57.70
81337;DHT22;70799;48.000;10.584;2023-07-29T10:41:18;28.90;59.50
81337;DHT22;70799;48.000;10.584;2023-07-29T10:43:55;29.10;58.70
81337;DHT22;70799;48.000;10.584;2023-07-29T10:46:38;29.50;57.60
81337;DHT22;70799;48.000;10.584;2023-07-29T10:49:23;29.60;57.20
81337;DHT22;70799;48.000;10.584;2023-07-29T10:51:56;29.60;56.60
81337;DHT22;70799;48.000;10.584;2023-07-29T10:54:30;29.80;56.70
81337;DHT22;70799;48.000;10.584;2023-07-29T10:57:03;29.70;55.60
81337;DHT22;70799;48.000;10.584;2023-07-29T10:59:36;29.40;56.90
81337;DHT22;70799;48.000;10.584;2023-07-29T11:02:17;29.50;56.50
81337;DHT22;70799;48.000;10.584;2023-07-29T11:04:50;29.80;56.30
81337;DHT22;70799;48.000;10.584;2023-07-29T11:07:25;30.10;56.90
81337;DHT22;70799;48.000;10.584;2023-07-29T11:10:03;30.50;55.30
81337;DHT22;70799;48.000;10.584;2023-07-29T11:12:50;30.60;54.30
81337;DHT22;70799;48.000;10.584;2023-07-29T11:15:26;30.70;55.80
81337;DHT22;70799;48.000;10.584;2023-07-29T11:18:06;30.80;55.10
81337;DHT22;70799;48.000;10.584;2023-07-29T11:20:41;30.90;54.30
81337;DHT22;70799;48.000;10.584;2023-07-29T11:23:15;30.80;53.00
81337;DHT22;70799;48.000;10.584;2023-07-29T11:25:48;31.00;55.00
81337;DHT22;70799;48.000;10.584;2023-07-29T11:28:21;31.20;52.80
81337;DHT22;70799;48.000;10.584;2023-07-29T11:30:56;31.20;52.80
81337;DHT22;70799;48.000;10.584;2023-07-29T11:33:29;31.20;53.70
81337;DHT22;70799;48.000;10.584;2023-07-29T11:36:03;31.10;52.70
81337;DHT22;70799;48.000;10.584;2023-07-29T11:38:36;30.90;51.30
81337;DHT22;70799;48.000;10.584;2023-07-29T11:41:12;30.80;53.50
81337;DHT22;70799;48.000;10.584;2023-07-29T11:43:45;30.90;53.70
81337;DHT22;70799;48.000;10.584;2023-07-29T11:46:21;31.10;53.60
81337;DHT22;70799;48.000;10.584;2023-07-29T11:48:55;31.00;51.40
81337;DHT22;70799;48.000;10.584;2023-07-29T11:51:28;30.80;50.30
81337;DHT22;70799;48.000;10.584;2023-07-29T11:54:01;30.80;52.70
81337;DHT22;70799;48.000;10.584;2023-07-29T11:56:38;30.80;51.40
81337;DHT22;70799;48.000;10.584;2023-07-29T11:59:11;30.50;49.80
81337;DHT22;70799;48.000;10.584;2023-07-29T12:01:45;30.30;50.30
81337;DHT22;70799;48.000;10.584;2023-07-29T12:04:18;30.50;50.30
81337;DHT22;70799;48.000;10.584;2023-07-29T12:06:51;30.20;49.00
81337;DHT22;70799;48.000;10.584;2023-07-29T12:09:25;30.20;49.70
81337;DHT22;70799;48.000;10.584;2023-07-29T12:11:59;30.10;50.70
81337;DHT22;70799;48.000;10.584;2023-07-29T12:14:33;30.20;48.50
81337;DHT22;70799;48.000;10.584;2023-07-29T12:17:07;30.30;51.30
81337;DHT22;70799;48.000;10.584;2023-07-29T12:19:41;30.50;50.40
81337;DHT22;70799;48.000;10.584;2023-07-29T12:22:18;30.60;50.40
81337;DHT22;70799;48.000;10.584;2023-07-29T12:24:51;30.80;50.00
81337;DHT22;70799;48.000;10.584;2023-07-29T12:27:25;31.00;49.80
81337;DHT22;70799;48.000;10.584;2023-07-29T12:30:00;31.00;50.50
81337;DHT22;70799;48.000;10.584;2023-07-29T12:32:46;30.80;49.40
81337;DHT22;70799;48.000;10.584;2023-07-29T12:35:19;30.90;48.80
81337;DHT22;70799;48.000;10.584;2023-07-29T12:37:59;30.70;49.70
81337;DHT22;70799;48.000;10.584;2023-07-29T12:40:32;30.60;50.20
81337;DHT22;70799;48.000;10.584;2023-07-29T12:43:06;30.50;48.80
81337;DHT22;70799;48.000;10.584;2023-07-29T12:45:39;30.50;49.60
81337;DHT22;70799;48.000;10.584;2023-07-29T12:48:13;30.60;50.30
81337;DHT22;70799;48.000;10.584;2023-07-29T12:50:46;30.70;48.20
81337;DHT22;70799;48.000;10.584;2023-07-29T12:53:19;30.80;48.50
81337;DHT22;70799;48.000;10.584;2023-07-29T12:55:52;30.70;48.50
81337;DHT22;70799;48.000;10.584;2023-07-29T12:58:25;30.70;49.00
81337;DHT22;70799;48.000;10.584;2023-07-29T13:00:58;30.70;49.40
81337;DHT22;70799;48.000;10.584;2023-07-29T13:03:32;30.60;50.50
81337;DHT22;70799;48.000;10.584;2023-07-29T13:06:05;30.80;50.00
81337;DHT22;70799;48.000;10.584;2023-07-29T13:08:38;30.70;49.60
81337;DHT22;70799;48.000;10.584;2023-07-29T13:11:11;30.80;49.60
81337;DHT22;70799;48.000;10.584;2023-07-29T13:13:44;30.70;50.60
81337;DHT22;70799;48.000;10.584;2023-07-29T13:16:25;30.80;51.60
81337;DHT22;70799;48.000;10.584;2023-07-29T13:18:59;30.90;50.60
81337;DHT22;70799;48.000;10.584;2023-07-29T13:21:37;31.00;50.80
81337;DHT22;70799;48.000;10.584;2023-07-29T13:24:16;30.90;51.30
81337;DHT22;70799;48.000;10.584;2023-07-29T13:26:49;30.80;49.00
81337;DHT22;70799;48.000;10.584;2023-07-29T13:29:24;30.60;49.00
81337;DHT22;70799;48.000;10.584;2023-07-29T13:31:58;30.10;48.90
81337;DHT22;70799;48.000;10.584;2023-07-29T13:34:32;29.80;49.90
81337;DHT22;70799;48.000;10.584;2023-07-29T13:37:06;29.40;52.60
81337;DHT22;70799;48.000;10.584;2023-07-29T13:39:39;28.90;54.30
81337;DHT22;70799;48.000;10.584;2023-07-29T13:42:12;28.50;55.40
81337;DHT22;70799;48.000;10.584;2023-07-29T13:44:45;28.40;56.60
81337;DHT22;70799;48.000;10.584;2023-07-29T13:47:18;28.00;59.10
81337;DHT22;70799;48.000;10.584;2023-07-29T13:49:51;27.50;59.70
81337;DHT22;70799;48.000;10.584;2023-07-29T13:52:28;27.00;60.70
81337;DHT22;70799;48.000;10.584;2023-07-29T13:55:05;26.50;62.70
81337;DHT22;70799;48.000;10.584;2023-07-29T13:57:39;26.30;65.70
81337;DHT22;70799;48.000;10.584;2023-07-29T14:00:46;26.10;65.90
81337;DHT22;70799;48.000;10.584;2023-07-29T14:03:34;25.90;67.80
81337;DHT22;70799;48.000;10.584;2023-07-29T14:06:08;25.80;67.10
81337;DHT22;70799;48.000;10.584;2023-07-29T14:08:43;25.90;67.20
81337;DHT22;70799;48.000;10.584;2023-07-29T14:14:24;25.80;66.50
81337;DHT22;70799;48.000;10.584;2023-07-29T14:17:10;25.70;67.80
81337;DHT22;70799;48.000;10.584;2023-07-29T14:19:44;25.50;67.50
81337;DHT22;70799;48.000;10.584;2023-07-29T14:22:35;25.20;67.70
81337;DHT22;70799;48.000;10.584;2023-07-29T14:25:12;25.00;67.00
81337;DHT22;70799;48.000;10.584;2023-07-29T14:28:14;24.80;68.40
81337;DHT22;70799;48.000;10.584;2023-07-29T14:30:50;24.60;68.60
81337;DHT22;70799;48.000;10.584;2023-07-29T14:33:25;24.40;69.30
81337;DHT22;70799;48.000;10.584;2023-07-29T14:36:16;24.30;69.50
81337;DHT22;70799;48.000;10.584;2023-07-29T14:38:52;24.30;70.60
81337;DHT22;70799;48.000;10.584;2023-07-29T14:41:34;24.30;70.00
81337;DHT22;70799;48.000;10.584;2023-07-29T14:44:19;24.30;70.00
81337;DHT22;70799;48.000;10.584;2023-07-29T14:47:02;24.30;70.20
81337;DHT22;70799;48.000;10.584;2023-07-29T14:49:49;24.30;70.40
81337;DHT22;70799;48.000;10.584;2023-07-29T14:52:27;24.40;70.30
81337;DHT22;70799;48.000;10.584;2023-07-29T14:55:00;24.30;70.40
81337;DHT22;70799;48.000;10.584;2023-07-29T14:57:33;24.30;70.40
81337;DHT22;70799;48.000;10.584;2023-07-29T15:00:07;24.40;70.20
81337;DHT22;70799;48.000;10.584;2023-07-29T15:02:44;24.40;71.00
81337;DHT22;70799;48.000;10.584;2023-07-29T15:05:26;24.40;71.10
81337;DHT22;70799;48.000;10.584;2023-07-29T15:07:59;24.40;70.80
81337;DHT22;70799;48.000;10.584;2023-07-29T15:10:36;24.40;69.80
81337;DHT22;70799;48.000;10.584;2023-07-29T15:13:09;24.50;69.90
81337;DHT22;70799;48.000;10.584;2023-07-29T15:15:44;24.40;69.20
81337;DHT22;70799;48.000;10.584;2023-07-29T15:18:18;24.40;69.10
81337;DHT22;70799;48.000;10.584;2023-07-29T15:20:51;24.40;68.40
81337;DHT22;70799;48.000;10.584;2023-07-29T15:23:24;24.30;68.50
81337;DHT22;70799;48.000;10.584;2023-07-29T15:25:58;24.20;66.80
81337;DHT22;70799;48.000;10.584;2023-07-29T15:28:34;24.10;67.20
81337;DHT22;70799;48.000;10.584;2023-07-29T15:31:12;24.20;67.40
81337;DHT22;70799;48.000;10.584;2023-07-29T15:33:45;24.20;65.70
81337;DHT22;70799;48.000;10.584;2023-07-29T15:36:19;24.20;66.20
81337;DHT22;70799;48.000;10.584;2023-07-29T15:38:53;24.20;65.00
81337;DHT22;70799;48.000;10.584;2023-07-29T15:41:27;24.20;64.80
81337;DHT22;70799;48.000;10.584;2023-07-29T15:44:04;24.10;63.80
81337;DHT22;70799;48.000;10.584;2023-07-29T15:46:40;24.00;63.50
81337;DHT22;70799;48.000;10.584;2023-07-29T15:49:15;23.90;61.40
81337;DHT22;70799;48.000;10.584;2023-07-29T15:51:48;23.80;62.20
81337;DHT22;70799;48.000;10.584;2023-07-29T15:54:22;23.90;61.80
81337;DHT22;70799;48.000;10.584;2023-07-29T15:56:55;23.80;61.70
81337;DHT22;70799;48.000;10.584;2023-07-29T15:59:29;23.70;62.20
81337;DHT22;70799;48.000;10.584;2023-07-29T16:02:03;23.80;62.80
81337;DHT22;70799;48.000;10.584;2023-07-29T16:04:40;23.70;63.90
81337;DHT22;70799;48.000;10.584;2023-07-29T16:07:13;23.60;66.20
81337;DHT22;70799;48.000;10.584;2023-07-29T16:09:46;23.60;67.50